sensor_id;sensor_type;location;lat;lon;timestamp;pressure;altitude;pressure_sealevel;temperature;humidity
50867;BME280;36839;51.946;21.002;2023-04-29T00:02:26;100129.83;;;4.12;100.00
50867;BME280;36839;51.946;21.002;2023-04-29T00:04:55;100128.23;;;4.12;100.00
50867;BME280;36839;51.946;21.002;2023-04-29T00:07:30;100127.77;;;4.10;100.00
50867;BME280;36839;51.946;21.002;2023-04-29T00:10:01;100123.69;;;4.09;100.00
50867;BME280;36839;51.946;21.002;2023-04-29T00:12:33;100125.13;;;4.10;100.00
50867;BME280;36839;51.946;21.002;2023-04-29T00:15:00;100121.85;;;4.08;100.00
50867;BME280;36839;51.946;21.002;2023-04-29T00:17:42;100125.94;;;4.06;100.00
50867;BME280;36839;51.946;21.002;2023-04-29T00:20:11;100124.75;;;4.05;100.00
50867;BME280;36839;51.946;21.002;2023-04-29T00:22:41;100125.41;;;4.03;100.00
50867;BME280;36839;51.946;21.002;2023-04-29T00:25:09;100125.70;;;3.99;100.00
50867;BME280;36839;51.946;21.002;2023-04-29T00:27:38;100118.84;;;3.97;100.00
50867;BME280;36839;51.946;21.002;2023-04-29T00:30:09;100116.27;;;3.92;100.00
50867;BME280;36839;51.946;21.002;2023-04-29T00:32:37;100114.98;;;3.86;100.00
50867;BME280;36839;51.946;21.002;2023-04-29T00:35:07;100114.56;;;3.83;100.00
50867;BME280;36839;51.946;21.002;2023-04-29T00:37:35;100111.23;;;3.81;100.00
50867;BME280;36839;51.946;21.002;2023-04-29T00:40:05;100111.34;;;3.77;100.00
50867;BME280;36839;51.946;21.002;2023-04-29T00:42:42;100106.50;;;3.74;100.00
50867;BME280;36839;51.946;21.002;2023-04-29T00:45:20;100104.84;;;3.70;100.00
50867;BME280;36839;51.946;21.002;2023-04-29T00:47:48;100098.52;;;3.64;100.00
50867;BME280;36839;51.946;21.002;2023-04-29T00:50:16;100099.52;;;3.62;100.00
50867;BME280;36839;51.946;21.002;2023-04-29T00:52:46;100097.98;;;3.56;100.00
50867;BME280;36839;51.946;21.002;2023-04-29T00:55:16;100098.10;;;3.54;100.00
50867;BME280;36839;51.946;21.002;2023-04-29T00:57:44;100098.12;;;3.53;100.00
50867;BME280;36839;51.946;21.002;2023-04-29T01:00:21;100094.35;;;3.55;100.00
50867;BME280;36839;51.946;21.002;2023-04-29T01:02:59;100090.10;;;3.58;100.00
50867;BME280;36839;51.946;21.002;2023-04-29T01:05:28;100092.60;;;3.60;100.00
50867;BME280;36839;51.946;21.002;2023-04-29T01:11:10;100091.64;;;3.61;100.00
50867;BME280;36839;51.946;21.002;2023-04-29T01:13:49;100092.17;;;3.62;100.00
50867;BME280;36839;51.946;21.002;2023-04-29T01:16:24;100094.08;;;3.66;100.00
50867;BME280;36839;51.946;21.002;2023-04-29T01:19:02;100095.22;;;3.69;100.00
50867;BME280;36839;51.946;21.002;2023-04-29T01:21:44;100093.75;;;3.73;100.00
50867;BME280;36839;51.946;21.002;2023-04-29T01:24:17;100091.30;;;3.74;100.00
50867;BME280;36839;51.946;21.002;2023-04-29T01:26:55;100091.80;;;3.74;100.00
50867;BME280;36839;51.946;21.002;2023-04-29T01:29:49;100092.43;;;3.77;100.00
50867;BME280;36839;51.946;21.002;2023-04-29T01:32:51;100096.81;;;3.81;100.00
50867;BME280;36839;51.946;21.002;2023-04-29T01:38:25;100097.94;;;3.84;100.00
50867;BME280;36839;51.946;21.002;2023-04-29T01:41:13;100098.14;;;3.85;100.00
50867;BME280;36839;51.946;21.002;2023-04-29T01:43:46;100094.79;;;3.87;100.00
50867;BME280;36839;51.946;21.002;2023-04-29T01:46:16;100095.65;;;3.89;100.00
50867;BME280;36839;51.946;21.002;2023-04-29T01:48:51;100095.16;;;3.92;100.00
50867;BME280;36839;51.946;21.002;2023-04-29T01:51:18;100098.38;;;3.96;100.00
50867;BME280;36839;51.946;21.002;2023-04-29T01:53:50;100093.10;;;3.98;100.00
50867;BME280;36839;51.946;21.002;2023-04-29T01:56:19;100092.75;;;4.02;100.00
50867;BME280;36839;51.946;21.002;2023-04-29T01:58:48;100089.96;;;4.04;100.00
50867;BME280;36839;51.946;21.002;2023-04-29T02:01:19;100088.39;;;4.04;100.00
50867;BME280;36839;51.946;21.002;2023-04-29T02:03:51;100085.61;;;4.05;100.00
50867;BME280;36839;51.946;21.002;2023-04-29T02:06:20;100085.52;;;4.05;100.00
50867;BME280;36839;51.946;21.002;2023-04-29T02:08:51;100088.43;;;4.06;100.00
50867;BME280;36839;51.946;21.002;2023-04-29T02:11:20;100085.02;;;4.07;100.00
50867;BME280;36839;51.946;21.002;2023-04-29T02:13:47;100086.48;;;4.10;100.00
50867;BME280;36839;51.946;21.002;2023-04-29T02:16:23;100081.67;;;4.12;100.00
50867;BME280;36839;51.946;21.002;2023-04-29T02:18:52;100083.73;;;4.14;100.00
50867;BME280;36839;51.946;21.002;2023-04-29T02:21:27;100081.65;;;4.16;100.00
50867;BME280;36839;51.946;21.002;2023-04-29T02:23:55;100081.32;;;4.17;100.00
50867;BME280;36839;51.946;21.002;2023-04-29T02:26:23;100082.08;;;4.18;100.00
50867;BME280;36839;51.946;21.002;2023-04-29T02:28:50;100078.41;;;4.18;100.00
50867;BME280;36839;51.946;21.002;2023-04-29T02:31:19;100076.01;;;4.21;100.00
50867;BME280;36839;51.946;21.002;2023-04-29T02:33:50;100075.20;;;4.24;100.00
50867;BME280;36839;51.946;21.002;2023-04-29T02:36:18;100074.29;;;4.27;100.00
50867;BME280;36839;51.946;21.002;2023-04-29T02:38:48;100070.95;;;4.30;100.00
50867;BME280;36839;51.946;21.002;2023-04-29T02:41:22;100067.74;;;4.33;100.00
50867;BME280;36839;51.946;21.002;2023-04-29T02:43:49;100067.00;;;4.36;100.00
50867;BME280;36839;51.946;21.002;2023-04-29T02:46:28;100067.44;;;4.40;100.00
50867;BME280;36839;51.946;21.002;2023-04-29T02:48:58;100073.28;;;4.42;100.00
50867;BME280;36839;51.946;21.002;2023-04-29T02:51:27;100069.54;;;4.43;100.00
50867;BME280;36839;51.946;21.002;2023-04-29T02:53:55;100064.94;;;4.43;100.00
50867;BME280;36839;51.946;21.002;2023-04-29T02:56:24;100067.73;;;4.44;100.00
50867;BME280;36839;51.946;21.002;2023-04-29T02:58:53;100069.29;;;4.46;100.00
50867;BME280;36839;51.946;21.002;2023-04-29T03:01:21;100065.52;;;4.48;100.00
50867;BME280;36839;51.946;21.002;2023-04-29T03:03:54;100061.40;;;4.50;100.00
50867;BME280;36839;51.946;21.002;2023-04-29T03:06:24;100060.66;;;4.51;100.00
50867;BME280;36839;51.946;21.002;2023-04-29T03:08:53;100061.70;;;4.53;100.00
50867;BME280;36839;51.946;21.002;2023-04-29T03:11:23;100059.82;;;4.56;100.00
50867;BME280;36839;51.946;21.002;2023-04-29T03:13:51;100059.85;;;4.57;100.00
50867;BME280;36839;51.946;21.002;2023-04-29T03:16:20;100058.54;;;4.57;100.00
50867;BME280;36839;51.946;21.002;2023-04-29T03:18:49;100057.92;;;4.57;100.00
50867;BME280;36839;51.946;21.002;2023-04-29T03:21:18;100057.21;;;4.56;100.00
50867;BME280;36839;51.946;21.002;2023-04-29T03:23:46;100055.07;;;4.56;100.00
50867;BME280;36839;51.946;21.002;2023-04-29T03:26:14;100056.23;;;4.57;100.00
50867;BME280;36839;51.946;21.002;2023-04-29T03:28:42;100056.57;;;4.57;100.00
50867;BME280;36839;51.946;21.002;2023-04-29T03:31:15;100057.61;;;4.58;100.00
50867;BME280;36839;51.946;21.002;2023-04-29T03:33:43;100054.90;;;4.58;100.00
50867;BME280;36839;51.946;21.002;2023-04-29T03:36:12;100056.80;;;4.61;100.00
50867;BME280;36839;51.946;21.002;2023-04-29T03:38:42;100054.90;;;4.61;100.00
50867;BME280;36839;51.946;21.002;2023-04-29T03:41:11;100057.03;;;4.64;100.00
50867;BME280;36839;51.946;21.002;2023-04-29T03:43:41;100053.83;;;4.66;100.00
50867;BME280;36839;51.946;21.002;2023-04-29T03:46:10;100055.55;;;4.68;100.00
50867;BME280;36839;51.946;21.002;2023-04-29T03:48:38;100058.05;;;4.69;100.00
50867;BME280;36839;51.946;21.002;2023-04-29T03:51:09;100062.64;;;4.71;100.00
50867;BME280;36839;51.946;21.002;2023-04-29T03:53:46;100059.61;;;4.74;100.00
50867;BME280;36839;51.946;21.002;2023-04-29T03:56:14;100059.87;;;4.78;100.00
50867;BME280;36839;51.946;21.002;2023-04-29T03:58:42;100062.42;;;4.79;100.00
50867;BME280;36839;51.946;21.002;2023-04-29T04:01:10;100065.04;;;4.81;100.00
50867;BME280;36839;51.946;21.002;2023-04-29T04:03:37;100065.00;;;4.84;100.00
50867;BME280;36839;51.946;21.002;2023-04-29T04:06:06;100060.42;;;4.87;100.00
50867;BME280;36839;51.946;21.002;2023-04-29T04:08:36;100059.05;;;4.92;100.00
50867;BME280;36839;51.946;21.002;2023-04-29T04:11:05;100054.44;;;4.98;100.00
50867;BME280;36839;51.946;21.002;2023-04-29T04:13:33;100055.53;;;5.05;100.00
50867;BME280;36839;51.946;21.002;2023-04-29T04:16:15;100051.20;;;5.12;100.00
50867;BME280;36839;51.946;21.002;2023-04-29T04:18:42;100048.64;;;5.18;100.00
50867;BME280;36839;51.946;21.002;2023-04-29T04:21:11;100048.77;;;5.23;100.00
50867;BME280;36839;51.946;21.002;2023-04-29T04:23:40;100043.13;;;5.28;100.00
50867;BME280;36839;51.946;21.002;2023-04-29T04:26:08;100040.44;;;5.35;100.00
50867;BME280;36839;51.946;21.002;2023-04-29T04:28:36;100037.42;;;5.43;100.00
50867;BME280;36839;51.946;21.002;2023-04-29T04:31:06;100041.19;;;5.52;100.00
50867;BME280;36839;51.946;21.002;2023-04-29T04:33:35;100037.95;;;5.62;100.00
50867;BME280;36839;51.946;21.002;2023-04-29T04:36:03;100038.45;;;5.76;100.00
50867;BME280;36839;51.946;21.002;2023-04-29T04:38:31;100038.12;;;5.89;100.00
50867;BME280;36839;51.946;21.002;2023-04-29T04:41:01;100037.02;;;5.99;100.00
50867;BME280;36839;51.946;21.002;2023-04-29T04:43:39;100036.47;;;6.11;100.00
50867;BME280;36839;51.946;21.002;2023-04-29T04:46:14;100041.61;;;6.22;100.00
50867;BME280;36839;51.946;21.002;2023-04-29T04:48:42;100041.77;;;6.34;100.00
50867;BME280;36839;51.946;21.002;2023-04-29T04:51:11;100040.56;;;6.43;100.00
50867;BME280;36839;51.946;21.002;2023-04-29T04:53:41;100043.48;;;6.52;100.00
50867;BME280;36839;51.946;21.002;2023-04-29T04:56:16;100040.27;;;6.61;100.00
50867;BME280;36839;51.946;21.002;2023-04-29T04:58:43;100038.71;;;6.69;100.00
50867;BME280;36839;51.946;21.002;2023-04-29T05:01:11;100037.59;;;6.78;99.97
50867;BME280;36839;51.946;21.002;2023-04-29T05:03:52;100035.13;;;6.85;99.23
50867;BME280;36839;51.946;21.002;2023-04-29T05:06:22;100030.90;;;6.93;98.78
50867;BME280;36839;51.946;21.002;2023-04-29T05:08:50;100034.66;;;6.99;97.94
50867;BME280;36839;51.946;21.002;2023-04-29T05:11:19;100039.63;;;7.06;97.28
50867;BME280;36839;51.946;21.002;2023-04-29T05:13:49;100042.83;;;7.15;97.86
50867;BME280;36839;51.946;21.002;2023-04-29T05:16:19;100043.77;;;7.23;96.82
50867;BME280;36839;51.946;21.002;2023-04-29T05:18:48;100042.17;;;7.27;95.43
50867;BME280;36839;51.946;21.002;2023-04-29T05:21:16;100038.41;;;7.32;94.82
50867;BME280;36839;51.946;21.002;2023-04-29T05:23:58;100034.36;;;7.39;94.58
50867;BME280;36839;51.946;21.002;2023-04-29T05:26:28;100035.73;;;7.46;93.68
50867;BME280;36839;51.946;21.002;2023-04-29T05:29:10;100034.93;;;7.56;93.45
50867;BME280;36839;51.946;21.002;2023-04-29T05:31:39;100034.56;;;7.66;94.09
50867;BME280;36839;51.946;21.002;2023-04-29T05:34:09;100036.21;;;7.75;94.50
50867;BME280;36839;51.946;21.002;2023-04-29T05:36:38;100033.55;;;7.78;91.81
50867;BME280;36839;51.946;21.002;2023-04-29T05:39:16;100030.69;;;7.82;91.50
50867;BME280;36839;51.946;21.002;2023-04-29T05:41:45;100029.63;;;7.86;91.37
50867;BME280;36839;51.946;21.002;2023-04-29T05:44:15;100032.34;;;7.92;91.17
50867;BME280;36839;51.946;21.002;2023-04-29T05:46:44;100030.72;;;7.98;91.13
50867;BME280;36839;51.946;21.002;2023-04-29T05:49:21;100030.23;;;8.09;93.08
50867;BME280;36839;51.946;21.002;2023-04-29T05:51:58;100027.63;;;8.18;91.80
50867;BME280;36839;51.946;21.002;2023-04-29T05:54:32;100029.35;;;8.30;90.56
50867;BME280;36839;51.946;21.002;2023-04-29T05:57:02;100028.27;;;8.40;89.47
50867;BME280;36839;51.946;21.002;2023-04-29T05:59:29;100027.91;;;8.50;88.79
50867;BME280;36839;51.946;21.002;2023-04-29T06:02:02;100030.57;;;8.63;88.70
50867;BME280;36839;51.946;21.002;2023-04-29T06:04:30;100033.15;;;8.76;87.67
50867;BME280;36839;51.946;21.002;2023-04-29T06:07:03;100030.95;;;8.90;87.98
50867;BME280;36839;51.946;21.002;2023-04-29T06:09:31;100026.91;;;9.03;86.93
50867;BME280;36839;51.946;21.002;2023-04-29T06:12:01;100025.43;;;9.12;84.17
50867;BME280;36839;51.946;21.002;2023-04-29T06:14:31;100023.89;;;9.22;82.98
50867;BME280;36839;51.946;21.002;2023-04-29T06:17:17;100020.27;;;9.26;80.54
50867;BME280;36839;51.946;21.002;2023-04-29T06:19:45;100024.08;;;9.34;81.98
50867;BME280;36839;51.946;21.002;2023-04-29T06:22:14;100020.00;;;9.45;82.18
50867;BME280;36839;51.946;21.002;2023-04-29T06:24:44;100016.17;;;9.52;79.50
50867;BME280;36839;51.946;21.002;2023-04-29T06:27:11;100013.23;;;9.62;80.50
50867;BME280;36839;51.946;21.002;2023-04-29T06:29:41;100017.81;;;9.73;79.68
50867;BME280;36839;51.946;21.002;2023-04-29T06:32:10;100016.91;;;9.84;79.11
50867;BME280;36839;51.946;21.002;2023-04-29T06:34:52;100012.93;;;10.00;79.58
50867;BME280;36839;51.946;21.002;2023-04-29T06:37:20;100011.72;;;10.17;77.97
50867;BME280;36839;51.946;21.002;2023-04-29T06:39:48;100012.38;;;10.35;78.72
50867;BME280;36839;51.946;21.002;2023-04-29T06:42:15;100011.23;;;10.54;79.01
50867;BME280;36839;51.946;21.002;2023-04-29T06:44:44;100012.84;;;10.72;78.33
50867;BME280;36839;51.946;21.002;2023-04-29T06:47:11;100015.54;;;10.87;76.66
50867;BME280;36839;51.946;21.002;2023-04-29T06:49:41;100011.61;;;10.98;74.76
50867;BME280;36839;51.946;21.002;2023-04-29T06:52:18;100008.94;;;11.13;75.32
50867;BME280;36839;51.946;21.002;2023-04-29T06:54:50;100011.40;;;11.29;73.73
50867;BME280;36839;51.946;21.002;2023-04-29T06:57:25;100012.91;;;11.38;72.13
50867;BME280;36839;51.946;21.002;2023-04-29T06:59:53;100012.23;;;11.46;71.34
50867;BME280;36839;51.946;21.002;2023-04-29T07:05:53;100009.46;;;11.45;69.36
50867;BME280;36839;51.946;21.002;2023-04-29T07:08:22;100007.48;;;11.48;69.37
50867;BME280;36839;51.946;21.002;2023-04-29T07:10:59;100005.39;;;11.57;69.97
50867;BME280;36839;51.946;21.002;2023-04-29T07:13:29;100004.89;;;11.71;70.87
50867;BME280;36839;51.946;21.002;2023-04-29T07:15:57;100003.87;;;11.85;70.20
50867;BME280;36839;51.946;21.002;2023-04-29T07:18:27;100001.58;;;12.01;70.05
50867;BME280;36839;51.946;21.002;2023-04-29T07:21:01;100002.36;;;12.16;70.93
50867;BME280;36839;51.946;21.002;2023-04-29T07:23:37;100000.67;;;12.30;69.57
50867;BME280;36839;51.946;21.002;2023-04-29T07:26:35;99998.16;;;12.55;70.11
50867;BME280;36839;51.946;21.002;2023-04-29T07:29:03;100000.29;;;12.67;67.11
50867;BME280;36839;51.946;21.002;2023-04-29T07:31:31;99999.14;;;12.72;66.46
50867;BME280;36839;51.946;21.002;2023-04-29T07:33:59;99998.36;;;12.72;66.13
50867;BME280;36839;51.946;21.002;2023-04-29T07:36:27;100002.97;;;12.72;64.88
50867;BME280;36839;51.946;21.002;2023-04-29T07:39:01;100003.48;;;12.71;63.48
50867;BME280;36839;51.946;21.002;2023-04-29T07:41:29;100006.55;;;12.74;63.04
50867;BME280;36839;51.946;21.002;2023-04-29T07:43:59;100003.67;;;12.81;64.18
50867;BME280;36839;51.946;21.002;2023-04-29T07:46:39;100005.36;;;12.96;66.10
50867;BME280;36839;51.946;21.002;2023-04-29T07:49:08;100004.70;;;13.07;65.71
50867;BME280;36839;51.946;21.002;2023-04-29T07:51:36;100006.31;;;13.12;63.06
50867;BME280;36839;51.946;21.002;2023-04-29T07:54:06;100007.50;;;13.15;63.49
50867;BME280;36839;51.946;21.002;2023-04-29T07:56:33;100008.01;;;13.23;64.09
50867;BME280;36839;51.946;21.002;2023-04-29T07:59:00;100007.86;;;13.32;64.25
50867;BME280;36839;51.946;21.002;2023-04-29T08:05:09;100010.50;;;13.68;64.91
50867;BME280;36839;51.946;21.002;2023-04-29T08:07:37;100008.97;;;13.84;64.18
50867;BME280;36839;51.946;21.002;2023-04-29T08:10:09;100003.89;;;14.07;65.06
50867;BME280;36839;51.946;21.002;2023-04-29T08:12:39;100014.66;;;14.27;62.91
50867;BME280;36839;51.946;21.002;2023-04-29T08:15:10;100013.42;;;14.36;60.91
50867;BME280;36839;51.946;21.002;2023-04-29T08:17:37;100010.95;;;14.34;59.48
50867;BME280;36839;51.946;21.002;2023-04-29T08:20:10;100012.05;;;14.38;60.80
50867;BME280;36839;51.946;21.002;2023-04-29T08:22:49;100013.92;;;14.44;60.65
50867;BME280;36839;51.946;21.002;2023-04-29T08:25:19;100008.98;;;14.54;59.38
50867;BME280;36839;51.946;21.002;2023-04-29T08:27:48;100009.63;;;14.61;58.37
50867;BME280;36839;51.946;21.002;2023-04-29T08:30:18;100010.68;;;14.71;58.34
50867;BME280;36839;51.946;21.002;2023-04-29T08:32:50;100007.77;;;14.89;59.76
50867;BME280;36839;51.946;21.002;2023-04-29T08:35:19;100006.52;;;15.01;57.31
50867;BME280;36839;51.946;21.002;2023-04-29T08:37:48;100004.34;;;15.13;59.63
50867;BME280;36839;51.946;21.002;2023-04-29T08:40:16;100002.27;;;15.26;58.87
50867;BME280;36839;51.946;21.002;2023-04-29T08:42:45;100003.05;;;15.34;58.28
50867;BME280;36839;51.946;21.002;2023-04-29T08:45:19;99994.50;;;15.36;56.96
50867;BME280;36839;51.946;21.002;2023-04-29T08:47:53;99994.27;;;15.46;56.24
50867;BME280;36839;51.946;21.002;2023-04-29T08:50:22;99991.09;;;15.61;57.04
50867;BME280;36839;51.946;21.002;2023-04-29T08:52:52;99986.84;;;15.83;58.28
50867;BME280;36839;51.946;21.002;2023-04-29T08:55:22;99983.20;;;15.92;54.69
50867;BME280;36839;51.946;21.002;2023-04-29T08:57:54;99985.02;;;15.93;54.48
50867;BME280;36839;51.946;21.002;2023-04-29T09:00:24;99987.55;;;15.94;54.39
50867;BME280;36839;51.946;21.002;2023-04-29T09:02:53;99980.48;;;15.92;53.68
50867;BME280;36839;51.946;21.002;2023-04-29T09:05:23;99981.49;;;15.91;54.71
50867;BME280;36839;51.946;21.002;2023-04-29T09:07:53;99977.02;;;15.82;52.73
50867;BME280;36839;51.946;21.002;2023-04-29T09:10:23;99978.26;;;15.84;54.51
50867;BME280;36839;51.946;21.002;2023-04-29T09:12:56;99977.34;;;15.93;55.21
50867;BME280;36839;51.946;21.002;2023-04-29T09:15:25;99982.09;;;16.02;55.15
50867;BME280;36839;51.946;21.002;2023-04-29T09:17:54;99978.69;;;16.15;55.35
50867;BME280;36839;51.946;21.002;2023-04-29T09:20:30;99981.86;;;16.17;53.86
50867;BME280;36839;51.946;21.002;2023-04-29T09:23:03;99981.82;;;16.14;53.46
50867;BME280;36839;51.946;21.002;2023-04-29T09:25:33;99977.42;;;16.18;53.00
50867;BME280;36839;51.946;21.002;2023-04-29T09:28:15;99981.05;;;16.34;53.93
50867;BME280;36839;51.946;21.002;2023-04-29T09:30:45;99974.36;;;16.51;52.71
50867;BME280;36839;51.946;21.002;2023-04-29T09:33:14;99972.95;;;16.66;53.45
50867;BME280;36839;51.946;21.002;2023-04-29T09:35:51;99968.30;;;16.90;52.54
50867;BME280;36839;51.946;21.002;2023-04-29T09:38:52;99969.09;;;17.17;52.52
50867;BME280;36839;51.946;21.002;2023-04-29T09:41:21;99968.00;;;17.36;52.32
50867;BME280;36839;51.946;21.002;2023-04-29T09:44:06;99965.89;;;17.42;51.49
50867;BME280;36839;51.946;21.002;2023-04-29T09:46:38;99958.87;;;17.55;50.80
50867;BME280;36839;51.946;21.002;2023-04-29T09:49:25;99959.25;;;17.67;49.59
50867;BME280;36839;51.946;21.002;2023-04-29T09:51:55;99963.86;;;17.86;49.99
50867;BME280;36839;51.946;21.002;2023-04-29T09:54:28;99956.08;;;17.88;48.32
50867;BME280;36839;51.946;21.002;2023-04-29T09:56:59;99954.11;;;17.91;49.48
50867;BME280;36839;51.946;21.002;2023-04-29T09:59:29;99954.33;;;17.89;47.95
50867;BME280;36839;51.946;21.002;2023-04-29T10:02:12;99953.02;;;17.91;48.17
50867;BME280;36839;51.946;21.002;2023-04-29T10:04:45;99954.14;;;18.08;49.30
50867;BME280;36839;51.946;21.002;2023-04-29T10:07:15;99952.45;;;18.30;48.84
50867;BME280;36839;51.946;21.002;2023-04-29T10:09:47;99949.73;;;18.45;48.44
50867;BME280;36839;51.946;21.002;2023-04-29T10:12:18;99941.25;;;18.57;47.35
50867;BME280;36839;51.946;21.002;2023-04-29T10:14:56;99933.95;;;18.45;45.54
50867;BME280;36839;51.946;21.002;2023-04-29T10:17:35;99932.30;;;18.56;45.83
50867;BME280;36839;51.946;21.002;2023-04-29T10:20:07;99937.11;;;18.78;47.00
50867;BME280;36839;51.946;21.002;2023-04-29T10:22:47;99932.87;;;19.02;47.34
50867;BME280;36839;51.946;21.002;2023-04-29T10:25:20;99930.61;;;19.19;47.07
50867;BME280;36839;51.946;21.002;2023-04-29T10:27:51;99930.83;;;19.31;47.61
50867;BME280;36839;51.946;21.002;2023-04-29T10:30:34;99928.06;;;19.28;45.86
50867;BME280;36839;51.946;21.002;2023-04-29T10:33:09;99927.23;;;19.18;45.68
50867;BME280;36839;51.946;21.002;2023-04-29T10:35:38;99924.61;;;18.96;43.31
50867;BME280;36839;51.946;21.002;2023-04-29T10:38:12;99924.73;;;18.80;44.75
50867;BME280;36839;51.946;21.002;2023-04-29T10:40:44;99918.46;;;18.71;44.81
50867;BME280;36839;51.946;21.002;2023-04-29T10:43:22;99919.77;;;18.72;46.09
50867;BME280;36839;51.946;21.002;2023-04-29T10:46:17;99911.96;;;18.90;46.46
50867;BME280;36839;51.946;21.002;2023-04-29T10:48:51;99909.41;;;19.05;44.82
50867;BME280;36839;51.946;21.002;2023-04-29T10:51:34;99908.06;;;19.21;43.56
50867;BME280;36839;51.946;21.002;2023-04-29T10:54:07;99901.06;;;19.33;44.49
50867;BME280;36839;51.946;21.002;2023-04-29T10:56:46;99903.25;;;19.43;45.74
50867;BME280;36839;51.946;21.002;2023-04-29T10:59:59;99902.48;;;19.59;44.06
50867;BME280;36839;51.946;21.002;2023-04-29T11:02:02;99902.59;;;19.72;43.52
50867;BME280;36839;51.946;21.002;2023-04-29T11:04:31;99904.55;;;19.77;42.81
50867;BME280;36839;51.946;21.002;2023-04-29T11:07:02;99904.96;;;19.55;40.05
50867;BME280;36839;51.946;21.002;2023-04-29T11:09:31;99900.13;;;19.40;43.48
50867;BME280;36839;51.946;21.002;2023-04-29T11:12:04;99902.50;;;19.43;43.10
50867;BME280;36839;51.946;21.002;2023-04-29T11:17:07;99896.38;;;19.28;42.08
50867;BME280;36839;51.946;21.002;2023-04-29T11:19:42;99890.44;;;19.24;42.64
50867;BME280;36839;51.946;21.002;2023-04-29T11:22:25;99891.25;;;19.18;42.61
50867;BME280;36839;51.946;21.002;2023-04-29T11:25:05;99895.73;;;18.98;42.90
50867;BME280;36839;51.946;21.002;2023-04-29T11:27:37;99894.72;;;18.95;42.93
50867;BME280;36839;51.946;21.002;2023-04-29T11:30:06;99896.02;;;18.95;43.63
50867;BME280;36839;51.946;21.002;2023-04-29T11:32:39;99895.98;;;18.91;43.56
50867;BME280;36839;51.946;21.002;2023-04-29T11:35:15;99899.53;;;18.97;44.26
50867;BME280;36839;51.946;21.002;2023-04-29T11:37:47;99891.98;;;18.95;44.67
50867;BME280;36839;51.946;21.002;2023-04-29T11:40:15;99895.59;;;19.02;45.17
50867;BME280;36839;51.946;21.002;2023-04-29T11:42:45;99893.15;;;19.18;43.93
50867;BME280;36839;51.946;21.002;2023-04-29T11:45:17;99885.42;;;19.55;45.51
50867;BME280;36839;51.946;21.002;2023-04-29T11:47:46;99884.73;;;19.80;44.44
50867;BME280;36839;51.946;21.002;2023-04-29T11:50:17;99877.92;;;20.02;42.83
50867;BME280;36839;51.946;21.002;2023-04-29T11:52:47;99879.27;;;20.21;42.27
50867;BME280;36839;51.946;21.002;2023-04-29T11:55:18;99880.83;;;20.28;42.63
50867;BME280;36839;51.946;21.002;2023-04-29T11:57:48;99877.81;;;20.22;41.76
50867;BME280;36839;51.946;21.002;2023-04-29T12:00:18;99873.08;;;20.35;42.11
50867;BME280;36839;51.946;21.002;2023-04-29T12:02:59;99869.77;;;20.56;41.98
50867;BME280;36839;51.946;21.002;2023-04-29T12:05:27;99872.52;;;20.74;42.60
50867;BME280;36839;51.946;21.002;2023-04-29T12:07:54;99870.01;;;20.85;41.27
50867;BME280;36839;51.946;21.002;2023-04-29T12:10:27;99868.84;;;20.81;40.29
50867;BME280;36839;51.946;21.002;2023-04-29T12:12:56;99866.19;;;20.79;40.42
50867;BME280;36839;51.946;21.002;2023-04-29T12:15:23;99865.31;;;20.68;39.62
50867;BME280;36839;51.946;21.002;2023-04-29T12:17:51;99869.70;;;20.47;38.72
50867;BME280;36839;51.946;21.002;2023-04-29T12:20:19;99863.15;;;20.27;38.95
50867;BME280;36839;51.946;21.002;2023-04-29T12:22:47;99866.63;;;20.17;40.81
50867;BME280;36839;51.946;21.002;2023-04-29T12:25:16;99860.02;;;20.09;42.09
50867;BME280;36839;51.946;21.002;2023-04-29T12:27:44;99857.83;;;20.03;42.65
50867;BME280;36839;51.946;21.002;2023-04-29T12:30:12;99858.27;;;19.97;42.80
50867;BME280;36839;51.946;21.002;2023-04-29T12:32:40;99855.61;;;19.89;41.49
50867;BME280;36839;51.946;21.002;2023-04-29T12:35:14;99853.05;;;19.90;41.48
50867;BME280;36839;51.946;21.002;2023-04-29T12:37:50;99850.20;;;19.91;42.31
50867;BME280;36839;51.946;21.002;2023-04-29T12:40:28;99846.59;;;19.89;43.18
50867;BME280;36839;51.946;21.002;2023-04-29T12:42:57;99846.04;;;19.85;42.37
50867;BME280;36839;51.946;21.002;2023-04-29T12:45:32;99840.34;;;19.95;42.25
50867;BME280;36839;51.946;21.002;2023-04-29T12:48:02;99837.72;;;20.19;43.15
50867;BME280;36839;51.946;21.002;2023-04-29T12:50:34;99843.31;;;20.47;41.86
50867;BME280;36839;51.946;21.002;2023-04-29T12:53:04;99834.40;;;20.78;41.45
50867;BME280;36839;51.946;21.002;2023-04-29T12:55:36;99838.81;;;21.06;40.76
50867;BME280;36839;51.946;21.002;2023-04-29T12:58:04;99832.40;;;21.28;41.56
50867;BME280;36839;51.946;21.002;2023-04-29T13:00:43;99833.65;;;21.56;40.28
50867;BME280;36839;51.946;21.002;2023-04-29T13:03:15;99832.19;;;21.90;39.65
50867;BME280;36839;51.946;21.002;2023-04-29T13:05:43;99834.48;;;22.26;39.95
50867;BME280;36839;51.946;21.002;2023-04-29T13:08:11;99826.83;;;22.39;38.99
50867;BME280;36839;51.946;21.002;2023-04-29T13:10:43;99829.20;;;22.18;37.94
50867;BME280;36839;51.946;21.002;2023-04-29T13:13:10;99832.86;;;22.17;38.02
50867;BME280;36839;51.946;21.002;2023-04-29T13:15:40;99828.51;;;22.39;38.89
50867;BME280;36839;51.946;21.002;2023-04-29T13:18:09;99824.06;;;22.67;37.06
50867;BME280;36839;51.946;21.002;2023-04-29T13:20:36;99826.35;;;22.69;35.30
50867;BME280;36839;51.946;21.002;2023-04-29T13:23:05;99829.40;;;22.60;34.89
50867;BME280;36839;51.946;21.002;2023-04-29T13:25:35;99826.87;;;22.61;36.00